sensor_id;sensor_type;location;lat;lon;timestamp;pressure;altitude;pressure_sealevel;temperature;humidity
11750;BME280;5932;42.656;23.236;2022-08-03T00:02:06;93715.03;;;19.13;70.31
11750;BME280;5932;42.656;23.236;2022-08-03T00:04:33;93719.94;;;19.09;68.55
11750;BME280;5932;42.656;23.236;2022-08-03T00:06:59;93705.16;;;19.06;68.77
11750;BME280;5932;42.656;23.236;2022-08-03T00:09:26;93714.31;;;19.03;69.15
11750;BME280;5932;42.656;23.236;2022-08-03T00:11:53;93717.06;;;19.03;69.58
11750;BME280;5932;42.656;23.236;2022-08-03T00:14:20;93710.16;;;19.08;69.97
11750;BME280;5932;42.656;23.236;2022-08-03T00:16:48;93709.13;;;19.05;69.68
11750;BME280;5932;42.656;23.236;2022-08-03T00:19:14;93715.06;;;19.04;69.24
11750;BME280;5932;42.656;23.236;2022-08-03T00:21:41;93708.38;;;19.05;69.55
11750;BME280;5932;42.656;23.236;2022-08-03T00:24:08;93707.72;;;19.10;70.34
11750;BME280;5932;42.656;23.236;2022-08-03T00:26:35;93704.66;;;19.08;68.70
11750;BME280;5932;42.656;23.236;2022-08-03T00:29:02;93709.44;;;19.07;68.52
11750;BME280;5932;42.656;23.236;2022-08-03T00:31:29;93701.94;;;19.08;69.23
11750;BME280;5932;42.656;23.236;2022-08-03T00:33:57;93703.47;;;19.09;70.27
11750;BME280;5932;42.656;23.236;2022-08-03T00:36:24;93699.81;;;19.03;68.76
11750;BME280;5932;42.656;23.236;2022-08-03T00:38:50;93710.22;;;18.99;69.92
11750;BME280;5932;42.656;23.236;2022-08-03T00:41:17;93705.06;;;18.92;69.35
11750;BME280;5932;42.656;23.236;2022-08-03T00:43:44;93704.91;;;18.86;69.59
11750;BME280;5932;42.656;23.236;2022-08-03T00:46:11;93703.41;;;18.85;70.27
11750;BME280;5932;42.656;23.236;2022-08-03T00:48:38;93697.16;;;18.85;69.70
11750;BME280;5932;42.656;23.236;2022-08-03T00:51:06;93698.09;;;18.82;71.34
11750;BME280;5932;42.656;23.236;2022-08-03T00:53:34;93702.50;;;18.79;71.31
11750;BME280;5932;42.656;23.236;2022-08-03T00:56:02;93703.28;;;18.80;70.07
11750;BME280;5932;42.656;23.236;2022-08-03T00:58:28;93703.75;;;18.78;71.84
11750;BME280;5932;42.656;23.236;2022-08-03T01:00:55;93685.03;;;18.67;71.10
11750;BME280;5932;42.656;23.236;2022-08-03T01:03:22;93693.56;;;18.70;72.17
11750;BME280;5932;42.656;23.236;2022-08-03T01:05:54;93689.00;;;18.67;72.00
11750;BME280;5932;42.656;23.236;2022-08-03T01:08:31;93686.25;;;18.67;72.67
11750;BME280;5932;42.656;23.236;2022-08-03T01:11:06;93698.13;;;18.63;71.99
11750;BME280;5932;42.656;23.236;2022-08-03T01:13:40;93686.09;;;18.61;72.90
11750;BME280;5932;42.656;23.236;2022-08-03T01:16:13;93687.16;;;18.63;73.31
11750;BME280;5932;42.656;23.236;2022-08-03T01:18:49;93685.81;;;18.59;73.62
11750;BME280;5932;42.656;23.236;2022-08-03T01:21:22;93678.97;;;18.54;73.77
11750;BME280;5932;42.656;23.236;2022-08-03T01:24:01;93669.81;;;18.39;72.83
11750;BME280;5932;42.656;23.236;2022-08-03T01:26:59;93682.78;;;18.48;74.12
11750;BME280;5932;42.656;23.236;2022-08-03T01:29:49;93685.06;;;18.40;73.95
11750;BME280;5932;42.656;23.236;2022-08-03T01:32:20;93670.31;;;18.29;74.63
11750;BME280;5932;42.656;23.236;2022-08-03T01:34:58;93677.44;;;18.35;75.00
11750;BME280;5932;42.656;23.236;2022-08-03T01:37:35;93675.34;;;18.30;75.57
11750;BME280;5932;42.656;23.236;2022-08-03T01:40:05;93685.09;;;18.31;75.26
11750;BME280;5932;42.656;23.236;2022-08-03T01:42:35;93682.81;;;18.30;76.28
11750;BME280;5932;42.656;23.236;2022-08-03T01:45:05;93683.56;;;18.30;76.63
11750;BME280;5932;42.656;23.236;2022-08-03T01:47:34;93671.88;;;18.12;76.57
11750;BME280;5932;42.656;23.236;2022-08-03T01:50:03;93686.78;;;18.20;76.79
11750;BME280;5932;42.656;23.236;2022-08-03T01:52:31;93684.53;;;18.09;76.17
11750;BME280;5932;42.656;23.236;2022-08-03T01:55:00;93688.16;;;18.06;76.30
11750;BME280;5932;42.656;23.236;2022-08-03T01:57:29;93688.16;;;18.06;75.37
11750;BME280;5932;42.656;23.236;2022-08-03T01:59:58;93687.44;;;18.06;76.94
11750;BME280;5932;42.656;23.236;2022-08-03T02:02:28;93691.38;;;18.05;77.28
11750;BME280;5932;42.656;23.236;2022-08-03T02:04:57;93682.09;;;18.11;77.57
11750;BME280;5932;42.656;23.236;2022-08-03T02:07:25;93686.78;;;18.11;76.97
11750;BME280;5932;42.656;23.236;2022-08-03T02:09:54;93686.78;;;18.11;77.48
11750;BME280;5932;42.656;23.236;2022-08-03T02:12:25;93690.91;;;18.06;77.46
11750;BME280;5932;42.656;23.236;2022-08-03T02:14:54;93685.59;;;18.03;77.68
11750;BME280;5932;42.656;23.236;2022-08-03T02:17:24;93692.31;;;18.02;77.57
11750;BME280;5932;42.656;23.236;2022-08-03T02:19:55;93689.09;;;18.03;77.90
11750;BME280;5932;42.656;23.236;2022-08-03T02:22:24;93690.03;;;18.00;77.81
11750;BME280;5932;42.656;23.236;2022-08-03T02:24:51;93682.53;;;18.01;77.14
11750;BME280;5932;42.656;23.236;2022-08-03T02:27:20;93682.56;;;17.92;77.57
11750;BME280;5932;42.656;23.236;2022-08-03T02:29:51;93681.03;;;17.91;77.80
11750;BME280;5932;42.656;23.236;2022-08-03T02:32:21;93684.53;;;17.91;77.21
11750;BME280;5932;42.656;23.236;2022-08-03T02:34:50;93684.53;;;17.91;77.54
11750;BME280;5932;42.656;23.236;2022-08-03T02:37:20;93686.81;;;17.93;76.81
11750;BME280;5932;42.656;23.236;2022-08-03T02:39:49;93679.34;;;17.93;77.48
11750;BME280;5932;42.656;23.236;2022-08-03T02:42:20;93685.59;;;17.94;77.33
11750;BME280;5932;42.656;23.236;2022-08-03T02:44:48;93685.44;;;17.97;77.44
11750;BME280;5932;42.656;23.236;2022-08-03T02:47:18;93673.28;;;17.98;77.22
11750;BME280;5932;42.656;23.236;2022-08-03T02:49:47;93666.28;;;17.88;77.33
11750;BME280;5932;42.656;23.236;2022-08-03T02:52:14;93668.38;;;17.93;77.04
11750;BME280;5932;42.656;23.236;2022-08-03T02:54:45;93645.28;;;17.76;76.59
11750;BME280;5932;42.656;23.236;2022-08-03T02:57:14;93670.38;;;17.93;76.94
11750;BME280;5932;42.656;23.236;2022-08-03T02:59:44;93670.38;;;17.84;77.39
11750;BME280;5932;42.656;23.236;2022-08-03T03:02:12;93670.38;;;17.74;77.99
11750;BME280;5932;42.656;23.236;2022-08-03T03:04:41;93675.72;;;17.78;78.17
11750;BME280;5932;42.656;23.236;2022-08-03T03:07:10;93669.16;;;17.66;78.12
11750;BME280;5932;42.656;23.236;2022-08-03T03:09:38;93682.56;;;17.73;78.44
11750;BME280;5932;42.656;23.236;2022-08-03T03:12:07;93677.53;;;17.72;79.42
11750;BME280;5932;42.656;23.236;2022-08-03T03:14:36;93684.41;;;17.76;78.96
11750;BME280;5932;42.656;23.236;2022-08-03T03:17:03;93691.22;;;17.81;78.31
11750;BME280;5932;42.656;23.236;2022-08-03T03:19:32;93691.38;;;17.77;78.32
11750;BME280;5932;42.656;23.236;2022-08-03T03:22:00;93698.53;;;17.75;79.39
11750;BME280;5932;42.656;23.236;2022-08-03T03:24:28;93706.63;;;17.78;79.48
11750;BME280;5932;42.656;23.236;2022-08-03T03:26:55;93702.34;;;17.77;79.40
11750;BME280;5932;42.656;23.236;2022-08-03T03:29:24;93710.09;;;17.79;79.71
11750;BME280;5932;42.656;23.236;2022-08-03T03:31:51;93712.84;;;17.79;80.05
11750;BME280;5932;42.656;23.236;2022-08-03T03:34:18;93709.50;;;17.84;79.78
11750;BME280;5932;42.656;23.236;2022-08-03T03:36:46;93713.03;;;17.85;78.60
11750;BME280;5932;42.656;23.236;2022-08-03T03:39:13;93720.94;;;17.83;78.56
11750;BME280;5932;42.656;23.236;2022-08-03T03:41:39;93723.06;;;17.78;79.14
11750;BME280;5932;42.656;23.236;2022-08-03T03:44:06;93722.59;;;17.80;78.99
11750;BME280;5932;42.656;23.236;2022-08-03T03:46:35;93726.41;;;17.83;78.80
11750;BME280;5932;42.656;23.236;2022-08-03T03:49:04;93711.91;;;17.73;78.85
11750;BME280;5932;42.656;23.236;2022-08-03T03:51:31;93725.34;;;17.80;79.12
11750;BME280;5932;42.656;23.236;2022-08-03T03:53:59;93727.94;;;17.74;79.64
11750;BME280;5932;42.656;23.236;2022-08-03T03:56:27;93728.97;;;17.68;80.23
11750;BME280;5932;42.656;23.236;2022-08-03T03:58:54;93726.25;;;17.68;80.53
11750;BME280;5932;42.656;23.236;2022-08-03T04:01:21;93714.22;;;17.74;81.20
11750;BME280;5932;42.656;23.236;2022-08-03T04:03:49;93712.38;;;17.62;81.55
11750;BME280;5932;42.656;23.236;2022-08-03T04:06:17;93714.66;;;17.73;81.90
11750;BME280;5932;42.656;23.236;2022-08-03T04:09:02;93716.19;;;17.65;82.27
11750;BME280;5932;42.656;23.236;2022-08-03T04:11:49;93719.25;;;17.67;82.45
11750;BME280;5932;42.656;23.236;2022-08-03T04:14:18;93716.31;;;17.61;82.95
11750;BME280;5932;42.656;23.236;2022-08-03T04:16:49;93715.13;;;17.71;83.06
11750;BME280;5932;42.656;23.236;2022-08-03T04:19:22;93721.69;;;17.74;83.69
11750;BME280;5932;42.656;23.236;2022-08-03T04:21:53;93716.97;;;17.84;83.65
11750;BME280;5932;42.656;23.236;2022-08-03T04:24:22;93718.19;;;17.92;82.78
11750;BME280;5932;42.656;23.236;2022-08-03T04:26:51;93718.19;;;17.92;82.16
11750;BME280;5932;42.656;23.236;2022-08-03T04:29:19;93716.94;;;17.93;82.36
11750;BME280;5932;42.656;23.236;2022-08-03T04:31:48;93716.81;;;17.87;82.71
11750;BME280;5932;42.656;23.236;2022-08-03T04:34:16;93715.59;;;17.97;83.18
11750;BME280;5932;42.656;23.236;2022-08-03T04:36:48;93723.50;;;18.04;82.63
11750;BME280;5932;42.656;23.236;2022-08-03T04:39:22;93712.84;;;18.06;83.37
11750;BME280;5932;42.656;23.236;2022-08-03T04:41:52;93730.81;;;18.25;83.27
11750;BME280;5932;42.656;23.236;2022-08-03T04:44:20;93714.81;;;18.33;83.58
11750;BME280;5932;42.656;23.236;2022-08-03T04:46:49;93723.47;;;18.49;80.88
11750;BME280;5932;42.656;23.236;2022-08-03T04:49:17;93732.00;;;18.60;80.69
11750;BME280;5932;42.656;23.236;2022-08-03T04:51:47;93730.28;;;18.72;81.22
11750;BME280;5932;42.656;23.236;2022-08-03T04:54:14;93730.69;;;18.89;81.14
11750;BME280;5932;42.656;23.236;2022-08-03T04:56:41;93737.66;;;18.99;81.27
11750;BME280;5932;42.656;23.236;2022-08-03T04:59:09;93745.13;;;19.07;80.49
11750;BME280;5932;42.656;23.236;2022-08-03T05:01:35;93747.66;;;19.20;80.58
11750;BME280;5932;42.656;23.236;2022-08-03T05:04:02;93744.28;;;19.25;80.77
11750;BME280;5932;42.656;23.236;2022-08-03T05:06:29;93753.09;;;19.38;80.23
11750;BME280;5932;42.656;23.236;2022-08-03T05:08:57;93754.09;;;19.49;80.07
11750;BME280;5932;42.656;23.236;2022-08-03T05:11:24;93755.09;;;19.61;80.05
11750;BME280;5932;42.656;23.236;2022-08-03T05:13:51;93764.03;;;19.71;79.24
11750;BME280;5932;42.656;23.236;2022-08-03T05:16:18;93768.44;;;19.77;77.60
11750;BME280;5932;42.656;23.236;2022-08-03T05:18:45;93763.53;;;19.81;77.14
11750;BME280;5932;42.656;23.236;2022-08-03T05:21:12;93759.25;;;19.80;75.97
11750;BME280;5932;42.656;23.236;2022-08-03T05:23:41;93774.22;;;20.03;75.09
11750;BME280;5932;42.656;23.236;2022-08-03T05:26:09;93777.09;;;20.08;74.63
11750;BME280;5932;42.656;23.236;2022-08-03T05:28:37;93775.22;;;20.14;74.52
11750;BME280;5932;42.656;23.236;2022-08-03T05:31:04;93778.56;;;20.18;73.50
11750;BME280;5932;42.656;23.236;2022-08-03T05:33:30;93783.69;;;20.25;73.12
11750;BME280;5932;42.656;23.236;2022-08-03T05:35:57;93784.28;;;20.29;72.15
11750;BME280;5932;42.656;23.236;2022-08-03T05:38:25;93781.34;;;20.33;73.23
11750;BME280;5932;42.656;23.236;2022-08-03T05:40:52;93779.56;;;20.45;73.16
11750;BME280;5932;42.656;23.236;2022-08-03T05:43:20;93779.22;;;20.52;72.57
11750;BME280;5932;42.656;23.236;2022-08-03T05:45:47;93782.53;;;20.56;71.96
11750;BME280;5932;42.656;23.236;2022-08-03T05:48:14;93791.28;;;20.69;71.99
11750;BME280;5932;42.656;23.236;2022-08-03T05:50:41;93792.72;;;20.79;70.64
11750;BME280;5932;42.656;23.236;2022-08-03T05:53:07;93790.06;;;20.84;70.62
11750;BME280;5932;42.656;23.236;2022-08-03T05:55:34;93796.63;;;20.87;70.87
11750;BME280;5932;42.656;23.236;2022-08-03T05:58:01;93798.13;;;20.88;70.57
11750;BME280;5932;42.656;23.236;2022-08-03T06:00:30;93792.34;;;21.00;70.67
11750;BME280;5932;42.656;23.236;2022-08-03T06:02:56;93796.53;;;21.10;70.50
11750;BME280;5932;42.656;23.236;2022-08-03T06:05:23;93790.16;;;21.19;69.48
11750;BME280;5932;42.656;23.236;2022-08-03T06:07:51;93794.53;;;21.25;70.07
11750;BME280;5932;42.656;23.236;2022-08-03T06:10:19;93798.44;;;21.34;69.44
11750;BME280;5932;42.656;23.236;2022-08-03T06:12:46;93794.78;;;21.42;69.13
11750;BME280;5932;42.656;23.236;2022-08-03T06:15:14;93794.22;;;21.53;68.69
11750;BME280;5932;42.656;23.236;2022-08-03T06:17:46;93800.94;;;21.66;67.73
11750;BME280;5932;42.656;23.236;2022-08-03T06:20:15;93800.53;;;21.73;67.43
11750;BME280;5932;42.656;23.236;2022-08-03T06:22:43;93803.56;;;21.75;67.11
11750;BME280;5932;42.656;23.236;2022-08-03T06:25:10;93800.72;;;21.84;65.83
11750;BME280;5932;42.656;23.236;2022-08-03T06:27:37;93806.38;;;21.95;66.29
11750;BME280;5932;42.656;23.236;2022-08-03T06:30:06;93808.34;;;22.09;65.31
11750;BME280;5932;42.656;23.236;2022-08-03T06:32:33;93804.66;;;22.18;65.01
11750;BME280;5932;42.656;23.236;2022-08-03T06:35:01;93812.13;;;22.32;62.55
11750;BME280;5932;42.656;23.236;2022-08-03T06:37:28;93806.13;;;22.34;62.69
11750;BME280;5932;42.656;23.236;2022-08-03T06:39:55;93802.97;;;22.41;63.20
11750;BME280;5932;42.656;23.236;2022-08-03T06:42:22;93802.59;;;22.53;62.62
11750;BME280;5932;42.656;23.236;2022-08-03T06:44:49;93805.56;;;22.70;61.91
11750;BME280;5932;42.656;23.236;2022-08-03T06:47:15;93807.06;;;22.71;62.09
11750;BME280;5932;42.656;23.236;2022-08-03T06:49:42;93803.47;;;22.85;62.31
11750;BME280;5932;42.656;23.236;2022-08-03T06:52:10;93801.78;;;22.93;61.39
11750;BME280;5932;42.656;23.236;2022-08-03T06:54:37;93803.16;;;23.03;61.63
11750;BME280;5932;42.656;23.236;2022-08-03T06:57:06;93803.25;;;23.14;60.06
11750;BME280;5932;42.656;23.236;2022-08-03T06:59:36;93807.31;;;23.19;60.07
11750;BME280;5932;42.656;23.236;2022-08-03T07:02:03;93804.59;;;23.24;59.60
11750;BME280;5932;42.656;23.236;2022-08-03T07:04:30;93801.41;;;23.31;59.43
11750;BME280;5932;42.656;23.236;2022-08-03T07:06:57;93804.75;;;23.41;58.55
11750;BME280;5932;42.656;23.236;2022-08-03T07:09:25;93806.09;;;23.51;58.86
11750;BME280;5932;42.656;23.236;2022-08-03T07:11:52;93793.63;;;23.66;58.55
11750;BME280;5932;42.656;23.236;2022-08-03T07:14:19;93803.44;;;23.67;57.95
11750;BME280;5932;42.656;23.236;2022-08-03T07:16:46;93796.22;;;23.75;59.32
11750;BME280;5932;42.656;23.236;2022-08-03T07:19:13;93799.06;;;23.92;59.40
11750;BME280;5932;42.656;23.236;2022-08-03T07:21:40;93806.66;;;23.97;57.53
11750;BME280;5932;42.656;23.236;2022-08-03T07:24:06;93806.53;;;24.12;56.65
11750;BME280;5932;42.656;23.236;2022-08-03T07:26:35;93812.59;;;24.21;57.82
11750;BME280;5932;42.656;23.236;2022-08-03T07:29:02;93822.47;;;24.33;55.18
11750;BME280;5932;42.656;23.236;2022-08-03T07:31:28;93813.16;;;24.36;55.84
11750;BME280;5932;42.656;23.236;2022-08-03T07:33:55;93818.25;;;24.43;56.33
11750;BME280;5932;42.656;23.236;2022-08-03T07:36:22;93816.75;;;24.48;54.42
11750;BME280;5932;42.656;23.236;2022-08-03T07:38:49;93815.25;;;24.52;53.90
11750;BME280;5932;42.656;23.236;2022-08-03T07:41:16;93819.59;;;24.64;53.58
11750;BME280;5932;42.656;23.236;2022-08-03T07:43:44;93820.63;;;24.67;51.08
11750;BME280;5932;42.656;23.236;2022-08-03T07:46:10;93825.44;;;24.72;51.59
11750;BME280;5932;42.656;23.236;2022-08-03T07:48:37;93829.00;;;24.89;49.90
11750;BME280;5932;42.656;23.236;2022-08-03T07:51:04;93826.97;;;24.79;49.58
11750;BME280;5932;42.656;23.236;2022-08-03T07:53:31;93824.47;;;24.81;49.95
11750;BME280;5932;42.656;23.236;2022-08-03T07:55:57;93815.91;;;24.79;50.30
11750;BME280;5932;42.656;23.236;2022-08-03T07:58:24;93828.75;;;24.87;46.48
11750;BME280;5932;42.656;23.236;2022-08-03T08:00:52;93816.63;;;24.79;47.22
11750;BME280;5932;42.656;23.236;2022-08-03T08:03:19;93823.47;;;24.95;49.10
11750;BME280;5932;42.656;23.236;2022-08-03T08:05:47;93833.34;;;25.12;48.91
11750;BME280;5932;42.656;23.236;2022-08-03T08:08:14;93824.03;;;25.26;46.43
11750;BME280;5932;42.656;23.236;2022-08-03T08:10:40;93826.13;;;25.42;49.82
11750;BME280;5932;42.656;23.236;2022-08-03T08:13:07;93831.66;;;25.53;48.06
11750;BME280;5932;42.656;23.236;2022-08-03T08:15:34;93833.44;;;25.68;45.88
11750;BME280;5932;42.656;23.236;2022-08-03T08:18:02;93837.22;;;25.81;45.34
11750;BME280;5932;42.656;23.236;2022-08-03T08:20:31;93834.94;;;25.85;44.49
11750;BME280;5932;42.656;23.236;2022-08-03T08:22:59;93837.19;;;25.98;46.04
11750;BME280;5932;42.656;23.236;2022-08-03T08:25:26;93834.41;;;26.14;46.19
11750;BME280;5932;42.656;23.236;2022-08-03T08:27:53;93827.34;;;26.19;43.72
11750;BME280;5932;42.656;23.236;2022-08-03T08:30:21;93827.06;;;26.28;45.55
11750;BME280;5932;42.656;23.236;2022-08-03T08:32:49;93832.34;;;26.37;43.10
11750;BME280;5932;42.656;23.236;2022-08-03T08:35:17;93829.09;;;26.33;40.93
11750;BME280;5932;42.656;23.236;2022-08-03T08:37:45;93831.88;;;26.22;41.37
11750;BME280;5932;42.656;23.236;2022-08-03T08:40:12;93834.41;;;26.14;40.42
11750;BME280;5932;42.656;23.236;2022-08-03T08:42:41;93834.41;;;26.20;42.85
11750;BME280;5932;42.656;23.236;2022-08-03T08:45:09;93831.88;;;26.33;43.00
11750;BME280;5932;42.656;23.236;2022-08-03T08:47:38;93822.94;;;26.51;44.18
11750;BME280;5932;42.656;23.236;2022-08-03T08:50:08;93824.97;;;26.56;42.88
11750;BME280;5932;42.656;23.236;2022-08-03T08:52:39;93826.94;;;26.72;43.85
11750;BME280;5932;42.656;23.236;2022-08-03T08:55:08;93817.31;;;26.79;42.06
11750;BME280;5932;42.656;23.236;2022-08-03T08:57:37;93819.00;;;26.93;42.03
11750;BME280;5932;42.656;23.236;2022-08-03T09:00:07;93807.84;;;26.98;41.36
11750;BME280;5932;42.656;23.236;2022-08-03T09:02:36;93817.66;;;27.10;43.05
11750;BME280;5932;42.656;23.236;2022-08-03T09:05:03;93819.81;;;27.23;41.46
11750;BME280;5932;42.656;23.236;2022-08-03T09:07:30;93812.66;;;27.39;39.31
11750;BME280;5932;42.656;23.236;2022-08-03T09:09:58;93807.88;;;27.39;38.82
11750;BME280;5932;42.656;23.236;2022-08-03T09:12:25;93815.69;;;27.46;39.91
11750;BME280;5932;42.656;23.236;2022-08-03T09:14:53;93809.88;;;27.44;41.44
11750;BME280;5932;42.656;23.236;2022-08-03T09:17:20;93815.69;;;27.41;39.18
11750;BME280;5932;42.656;23.236;2022-08-03T09:20:04;93814.16;;;27.45;39.66
11750;BME280;5932;42.656;23.236;2022-08-03T09:22:32;93810.50;;;27.61;40.48
11750;BME280;5932;42.656;23.236;2022-08-03T09:25:02;93811.16;;;27.73;38.70
11750;BME280;5932;42.656;23.236;2022-08-03T09:27:40;93814.94;;;27.75;37.94
11750;BME280;5932;42.656;23.236;2022-08-03T09:30:12;93807.00;;;27.85;38.26
11750;BME280;5932;42.656;23.236;2022-08-03T09:32:39;93807.19;;;27.92;38.05
11750;BME280;5932;42.656;23.236;2022-08-03T09:35:07;93802.28;;;28.04;37.44
11750;BME280;5932;42.656;23.236;2022-08-03T09:37:34;93814.59;;;28.14;39.77
11750;BME280;5932;42.656;23.236;2022-08-03T09:40:02;93808.66;;;28.23;39.06
11750;BME280;5932;42.656;23.236;2022-08-03T09:42:31;93806.59;;;28.29;37.16
11750;BME280;5932;42.656;23.236;2022-08-03T09:44:59;93821.44;;;28.37;38.72
11750;BME280;5932;42.656;23.236;2022-08-03T09:47:28;93817.25;;;28.49;37.97
11750;BME280;5932;42.656;23.236;2022-08-03T09:49:57;93809.03;;;28.62;36.65
11750;BME280;5932;42.656;23.236;2022-08-03T09:52:29;93810.25;;;28.67;37.97
11750;BME280;5932;42.656;23.236;2022-08-03T09:54:58;93807.91;;;28.89;37.89
11750;BME280;5932;42.656;23.236;2022-08-03T09:57:27;93809.06;;;28.99;34.43
11750;BME280;5932;42.656;23.236;2022-08-03T10:00:05;93803.78;;;28.96;35.63
11750;BME280;5932;42.656;23.236;2022-08-03T10:02:34;93804.13;;;28.87;35.60
11750;BME280;5932;42.656;23.236;2022-08-03T10:05:01;93794.81;;;28.84;35.80
11750;BME280;5932;42.656;23.236;2022-08-03T10:07:29;93793.88;;;28.95;35.15
11750;BME280;5932;42.656;23.236;2022-08-03T10:09:58;93792.47;;;29.07;34.99
11750;BME280;5932;42.656;23.236;2022-08-03T10:12:26;93794.28;;;28.86;34.03
11750;BME280;5932;42.656;23.236;2022-08-03T10:14:54;93788.81;;;28.56;34.49
11750;BME280;5932;42.656;23.236;2022-08-03T10:17:22;93792.97;;;28.68;37.46
11750;BME280;5932;42.656;23.236;2022-08-03T10:19:49;93792.47;;;28.88;35.24
11750;BME280;5932;42.656;23.236;2022-08-03T10:22:20;93794.22;;;29.10;35.05
11750;BME280;5932;42.656;23.236;2022-08-03T10:24:52;93789.63;;;29.31;35.74
11750;BME280;5932;42.656;23.236;2022-08-03T10:27:21;93788.53;;;29.53;34.04
11750;BME280;5932;42.656;23.236;2022-08-03T10:29:52;93789.47;;;29.74;33.55
11750;BME280;5932;42.656;23.236;2022-08-03T10:32:25;93780.28;;;29.92;32.66
11750;BME280;5932;42.656;23.236;2022-08-03T10:35:01;93776.63;;;30.10;32.85
11750;BME280;5932;42.656;23.236;2022-08-03T10:37:30;93774.72;;;30.05;32.07
11750;BME280;5932;42.656;23.236;2022-08-03T10:39:59;93779.97;;;30.22;31.47
11750;BME280;5932;42.656;23.236;2022-08-03T10:42:27;93771.28;;;30.25;32.16
11750;BME280;5932;42.656;23.236;2022-08-03T10:45:03;93781.56;;;29.91;33.97
11750;BME280;5932;42.656;23.236;2022-08-03T10:47:30;93779.00;;;30.06;32.86
11750;BME280;5932;42.656;23.236;2022-08-03T10:49:58;93773.31;;;30.25;33.64
11750;BME280;5932;42.656;23.236;2022-08-03T10:52:26;93756.00;;;30.26;32.82
11750;BME280;5932;42.656;23.236;2022-08-03T10:54:53;93765.72;;;30.25;33.03
11750;BME280;5932;42.656;23.236;2022-08-03T10:57:50;93777.53;;;30.31;33.03
11750;BME280;5932;42.656;23.236;2022-08-03T11:00:20;93772.53;;;29.98;33.25
11750;BME280;5932;42.656;23.236;2022-08-03T11:03:14;93780.88;;;29.72;32.78
11750;BME280;5932;42.656;23.236;2022-08-03T11:05:42;93773.38;;;29.61;34.24
11750;BME280;5932;42.656;23.236;2022-08-03T11:08:29;93767.72;;;29.67;33.82
11750;BME280;5932;42.656;23.236;2022-08-03T11:10:59;93744.53;;;29.59;33.79
11750;BME280;5932;42.656;23.236;2022-08-03T11:13:28;93757.53;;;29.69;33.68
11750;BME280;5932;42.656;23.236;2022-08-03T11:16:03;93760.91;;;29.81;33.16
11750;BME280;5932;42.656;23.236;2022-08-03T11:18:55;93758.13;;;29.94;31.80
11750;BME280;5932;42.656;23.236;2022-08-03T11:21:55;93758.09;;;29.81;30.99
11750;BME280;5932;42.656;23.236;2022-08-03T11:24:57;93764.34;;;29.87;33.57
11750;BME280;5932;42.656;23.236;2022-08-03T11:27:29;93755.91;;;30.19;31.70
11750;BME280;5932;42.656;23.236;2022-08-03T11:29:59;93761.94;;;30.23;31.30
11750;BME280;5932;42.656;23.236;2022-08-03T11:32:58;93752.59;;;30.33;32.04
11750;BME280;5932;42.656;23.236;2022-08-03T11:35:26;93748.09;;;30.56;30.83
11750;BME280;5932;42.656;23.236;2022-08-03T11:38:08;93744.59;;;30.77;30.26
11750;BME280;5932;42.656;23.236;2022-08-03T11:40:41;93742.00;;;30.92;31.21
11750;BME280;5932;42.656;23.236;2022-08-03T11:43:10;93741.91;;;30.97;30.32
11750;BME280;5932;42.656;23.236;2022-08-03T11:45:58;93746.19;;;30.98;30.29
11750;BME280;5932;42.656;23.236;2022-08-03T11:48:31;93741.72;;;31.16;31.55
11750;BME280;5932;42.656;23.236;2022-08-03T11:50:59;93751.13;;;31.05;30.56
11750;BME280;5932;42.656;23.236;2022-08-03T11:53:26;93742.66;;;30.85;31.23
11750;BME280;5932;42.656;23.236;2022-08-03T11:55:57;93742.38;;;30.62;31.21
11750;BME280;5932;42.656;23.236;2022-08-03T11:58:25;93746.38;;;30.40;31.43
11750;BME280;5932;42.656;23.236;2022-08-03T12:01:01;93736.13;;;30.43;32.72
11750;BME280;5932;42.656;23.236;2022-08-03T12:03:31;93731.28;;;30.69;30.37
11750;BME280;5932;42.656;23.236;2022-08-03T12:05:59;93738.03;;;30.87;30.39
11750;BME280;5932;42.656;23.236;2022-08-03T12:08:31;93739.63;;;30.96;31.37
11750;BME280;5932;42.656;23.236;2022-08-03T12:11:00;93735.06;;;31.06;31.61
11750;BME280;5932;42.656;23.236;2022-08-03T12:13:40;93741.78;;;30.77;31.59
11750;BME280;5932;42.656;23.236;2022-08-03T12:16:07;93746.13;;;30.12;32.02
11750;BME280;5932;42.656;23.236;2022-08-03T12:18:36;93736.44;;;30.00;31.98
11750;BME280;5932;42.656;23.236;2022-08-03T12:21:04;93731.19;;;30.23;31.77
11750;BME280;5932;42.656;23.236;2022-08-03T12:23:31;93728.38;;;30.49;32.54
11750;BME280;5932;42.656;23.236;2022-08-03T12:26:01;93727.00;;;30.55;31.98
11750;BME280;5932;42.656;23.236;2022-08-03T12:28:29;93732.44;;;30.74;31.43
11750;BME280;5932;42.656;23.236;2022-08-03T12:31:00;93728.00;;;30.92;32.41
11750;BME280;5932;42.656;23.236;2022-08-03T12:33:28;93731.22;;;31.09;31.96
11750;BME280;5932;42.656;23.236;2022-08-03T12:36:04;93736.03;;;31.08;32.00
11750;BME280;5932;42.656;23.236;2022-08-03T12:38:32;93737.91;;;30.93;31.41
11750;BME280;5932;42.656;23.236;2022-08-03T12:41:02;93731.81;;;30.55;33.10
11750;BME280;5932;42.656;23.236;2022-08-03T12:43:30;93737.66;;;30.31;32.58
11750;BME280;5932;42.656;23.236;2022-08-03T12:46:07;93730.84;;;30.26;33.75
11750;BME280;5932;42.656;23.236;2022-08-03T12:48:35;93723.34;;;30.47;33.08
11750;BME280;5932;42.656;23.236;2022-08-03T12:51:10;93724.63;;;30.59;33.42
11750;BME280;5932;42.656;23.236;2022-08-03T12:53:36;93719.75;;;30.73;33.83
11750;BME280;5932;42.656;23.236;2022-08-03T12:56:04;93719.00;;;30.86;32.17
11750;BME280;5932;42.656;23.236;2022-08-03T12:58:33;93718.63;;;31.02;32.87
11750;BME280;5932;42.656;23.236;2022-08-03T13:01:03;93715.69;;;31.08;33.39
11750;BME280;5932;42.656;23.236;2022-08-03T13:03:38;93717.84;;;31.15;33.22
11750;BME280;5932;42.656;23.236;2022-08-03T13:06:11;93722.09;;;30.95;31.66
11750;BME280;5932;42.656;23.236;2022-08-03T13:08:39;93709.13;;;30.71;32.10
11750;BME280;5932;42.656;23.236;2022-08-03T13:11:23;93695.56;;;30.62;32.76
11750;BME280;5932;42.656;23.236;2022-08-03T13:13:51;93699.78;;;30.56;33.14